Time,TemperatureF,DewpointF,PressureIn,WindDirection,WindDirectionDegrees,WindSpeedMPH,WindSpeedGustMPH,Humidity,HourlyPrecipIn,Conditions,Clouds,dailyrainin,SoftwareType,DateUTC
2013-03-11 00:02:00,28.9,28.4,29.58,North,355,11.0,11.0,98,0.00,,---,0.00,VWS V14.01,2013-03-11 05:02:00,
2013-03-11 00:07:00,28.8,28.3,29.58,North,350,3.0,13.0,98,0.00,,---,0.00,VWS V14.01,2013-03-11 05:07:00,
2013-03-11 00:12:00,28.8,28.3,29.58,NNW,342,5.0,16.0,98,0.00,,---,0.00,VWS V14.01,2013-03-11 05:12:00,
2013-03-11 00:17:00,28.7,28.2,29.58,NW,324,11.0,16.0,98,0.00,,---,0.00,VWS V14.01,2013-03-11 05:17:00,
2013-03-11 00:22:00,28.5,28.0,29.58,North,350,15.0,16.0,98,0.00,,---,0.00,VWS V14.01,2013-03-11 05:22:00,
2013-03-11 00:27:00,28.2,27.7,29.58,North,355,4.0,17.0,98,0.00,,---,0.00,VWS V14.01,2013-03-11 05:27:00,
2013-03-11 00:32:00,28.1,27.6,29.58,NNE,26,13.0,13.0,98,0.00,,---,0.00,VWS V14.01,2013-03-11 05:32:00,
2013-03-11 00:37:00,28.1,27.6,29.58,NNW,331,11.0,13.0,98,0.00,,---,0.00,VWS V14.01,2013-03-11 05:37:00,
2013-03-11 00:42:00,28.0,27.5,29.57,North,10,6.0,16.0,98,0.00,,---,0.00,VWS V14.01,2013-03-11 05:42:00,
2013-03-11 00:47:00,27.9,27.4,29.57,NW,304,4.0,16.0,98,0.00,,---,0.00,VWS V14.01,2013-03-11 05:47:00,
2013-03-11 00:52:00,27.9,27.4,29.57,NW,315,5.0,16.0,98,0.00,,---,0.00,VWS V14.01,2013-03-11 05:52:00,
2013-03-11 00:57:00,27.9,27.4,29.57,NW,317,5.0,16.0,98,0.00,,---,0.00,VWS V14.01,2013-03-11 05:57:00,
2013-03-11 01:02:00,27.9,27.4,29.57,WNW,298,2.0,9.0,98,0.00,,---,0.00,VWS V14.01,2013-03-11 06:02:00,
2013-03-11 01:07:00,27.9,27.4,29.56,NNW,340,5.0,11.0,98,0.00,,---,0.00,VWS V14.01,2013-03-11 06:07:00,
2013-03-11 01:12:00,27.8,27.3,29.56,NW,323,9.0,11.0,98,0.00,,---,0.00,VWS V14.01,2013-03-11 06:12:00,
2013-03-11 01:17:00,27.8,27.3,29.56,NW,322,6.0,11.0,98,0.00,,---,0.00,VWS V14.01,2013-03-11 06:17:00,
2013-03-11 01:22:00,27.7,27.2,29.56,NW,319,3.0,16.0,98,0.00,,---,0.00,VWS V14.01,2013-03-11 06:22:00,
2013-03-11 01:27:00,27.7,27.2,29.56,NNW,338,6.0,16.0,98,0.00,,---,0.00,VWS V14.01,2013-03-11 06:27:00,
2013-03-11 01:32:00,27.7,27.2,29.55,NW,313,5.0,9.0,98,0.00,,---,0.00,VWS V14.01,2013-03-11 06:32:00,
2013-03-11 01:37:00,27.6,27.1,29.56,WNW,300,7.0,9.0,98,0.00,,---,0.00,VWS V14.01,2013-03-11 06:37:00,
2013-03-11 01:42:00,27.6,27.1,29.55,NW,307,3.0,9.0,98,0.00,,---,0.00,VWS V14.01,2013-03-11 06:42:00,
2013-03-11 01:47:00,27.6,27.1,29.55,NW,310,4.0,10.0,98,0.00,,---,0.00,VWS V14.01,2013-03-11 06:47:00,
2013-03-11 01:52:00,27.5,27.0,29.55,NNW,329,6.0,11.0,98,0.00,,---,0.00,VWS V14.01,2013-03-11 06:52:00,
2013-03-11 01:57:00,27.5,27.0,29.55,North,351,10.0,12.0,98,0.00,,---,0.00,VWS V14.01,2013-03-11 06:57:00,
2013-03-11 02:02:00,27.5,27.0,29.54,NW,304,3.0,10.0,98,0.00,,---,0.00,VWS V14.01,2013-03-11 07:02:00,
2013-03-11 02:07:00,27.4,26.9,29.54,WNW,298,3.0,11.0,98,0.00,,---,0.00,VWS V14.01,2013-03-11 07:07:00,
2013-03-11 02:12:00,27.4,26.9,29.54,NW,306,7.0,15.0,98,0.00,,---,0.00,VWS V14.01,2013-03-11 07:12:00,
2013-03-11 02:17:00,27.3,26.8,29.54,NW,323,5.0,15.0,98,0.00,,---,0.00,VWS V14.01,2013-03-11 07:17:00,
2013-03-11 02:22:00,27.3,26.8,29.54,NW,326,7.0,15.0,98,0.00,,---,0.00,VWS V14.01,2013-03-11 07:22:00,
2013-03-11 02:27:00,27.2,26.7,29.54,WNW,298,4.0,15.0,98,0.00,,---,0.00,VWS V14.01,2013-03-11 07:27:00,
2013-03-11 02:32:00,27.2,26.7,29.53,NW,310,4.0,11.0,98,0.00,,---,0.00,VWS V14.01,2013-03-11 07:32:00,
2013-03-11 02:37:00,27.1,26.6,29.53,NW,306,3.0,11.0,98,0.00,,---,0.00,VWS V14.01,2013-03-11 07:37:00,
2013-03-11 02:42:00,27.1,26.6,29.53,NW,306,6.0,13.0,98,0.00,,---,0.00,VWS V14.01,2013-03-11 07:42:00,
2013-03-11 02:47:00,27.1,26.6,29.53,NW,313,6.0,13.0,98,0.00,,---,0.00,VWS V14.01,2013-03-11 07:47:00,
2013-03-11 02:52:00,27.0,26.5,29.53,NW,306,6.0,13.0,98,0.00,,---,0.00,VWS V14.01,2013-03-11 07:52:00,
2013-03-11 02:57:00,27.1,26.6,29.53,North,350,5.0,13.0,98,0.00,,---,0.00,VWS V14.01,2013-03-11 07:57:00,
2013-03-11 03:02:00,27.0,26.5,29.53,WNW,300,4.0,10.0,98,0.00,,---,0.00,VWS V14.01,2013-03-11 08:02:00,
2013-03-11 03:07:00,27.1,26.6,29.53,NW,305,6.0,11.0,98,0.00,,---,0.00,VWS V14.01,2013-03-11 08:07:00,
2013-03-11 03:12:00,27.0,26.5,29.53,NW,317,4.0,11.0,98,0.00,,---,0.00,VWS V14.01,2013-03-11 08:12:00,
2013-03-11 03:17:00,27.1,26.6,29.52,WNW,301,3.0,11.0,98,0.00,,---,0.00,VWS V14.01,2013-03-11 08:17:00,
2013-03-11 03:22:00,27.1,26.6,29.52,NW,306,6.0,11.0,98,0.00,,---,0.00,VWS V14.01,2013-03-11 08:22:00,
2013-03-11 03:27:00,27.1,26.6,29.52,WNW,302,5.0,11.0,98,0.00,,---,0.00,VWS V14.01,2013-03-11 08:27:00,
2013-03-11 03:32:00,27.1,26.6,29.52,WNW,303,6.0,10.0,98,0.00,,---,0.00,VWS V14.01,2013-03-11 08:32:00,
2013-03-11 03:37:00,27.1,26.6,29.52,WNW,300,4.0,10.0,98,0.00,,---,0.00,VWS V14.01,2013-03-11 08:37:00,
2013-03-11 03:43:00,27.1,26.6,29.51,WNW,303,7.0,13.0,98,0.00,,---,0.00,VWS V14.01,2013-03-11 08:43:00,
2013-03-11 03:48:00,27.1,26.6,29.51,NW,315,5.0,13.0,98,0.00,,---,0.00,VWS V14.01,2013-03-11 08:48:00,
2013-03-11 03:53:00,27.1,26.6,29.51,NW,304,5.0,13.0,98,0.00,,---,0.00,VWS V14.01,2013-03-11 08:53:00,
2013-03-11 03:58:00,27.0,26.5,29.51,NW,312,6.0,13.0,98,0.00,,---,0.00,VWS V14.01,2013-03-11 08:58:00,
2013-03-11 04:03:00,27.0,26.5,29.51,NW,307,4.0,10.0,98,0.00,,---,0.00,VWS V14.01,2013-03-11 09:03:00,
2013-03-11 04:08:00,27.0,26.5,29.50,NW,324,7.0,10.0,98,0.00,,---,0.00,VWS V14.01,2013-03-11 09:08:00,
2013-03-11 04:13:00,27.0,26.5,29.50,NW,315,12.0,12.0,98,0.00,,---,0.00,VWS V14.01,2013-03-11 09:13:00,
2013-03-11 04:18:00,27.0,26.5,29.50,NW,304,8.0,12.0,98,0.00,,---,0.00,VWS V14.01,2013-03-11 09:18:00,
2013-03-11 04:23:00,27.0,26.5,29.50,WNW,300,7.0,13.0,98,0.00,,---,0.00,VWS V14.01,2013-03-11 09:23:00,
2013-03-11 04:28:00,27.0,26.5,29.50,WNW,284,7.0,13.0,98,0.00,,---,0.00,VWS V14.01,2013-03-11 09:28:00,
2013-03-11 04:33:00,27.1,26.6,29.50,WNW,298,4.0,12.0,98,0.00,,---,0.00,VWS V14.01,2013-03-11 09:33:00,
2013-03-11 04:38:00,27.1,26.6,29.50,WNW,296,5.0,13.0,98,0.00,,---,0.00,VWS V14.01,2013-03-11 09:38:00,
2013-03-11 04:43:00,27.1,26.6,29.49,WNW,297,11.0,13.0,98,0.00,,---,0.00,VWS V14.01,2013-03-11 09:43:00,
2013-03-11 04:48:00,27.1,26.6,29.49,WNW,289,6.0,13.0,98,0.00,,---,0.00,VWS V14.01,2013-03-11 09:48:00,
2013-03-11 04:53:00,27.1,26.6,29.49,NW,313,6.0,13.0,98,0.00,,---,0.00,VWS V14.01,2013-03-11 09:53:00,
2013-03-11 04:58:00,27.1,26.6,29.49,NW,304,5.0,13.0,98,0.00,,---,0.00,VWS V14.01,2013-03-11 09:58:00,
2013-03-11 05:03:00,27.1,26.6,29.49,NW,307,10.0,10.0,98,0.00,,---,0.00,VWS V14.01,2013-03-11 10:03:00,
2013-03-11 05:08:00,27.1,26.6,29.49,WNW,296,11.0,11.0,98,0.00,,---,0.00,VWS V14.01,2013-03-11 10:08:00,
2013-03-11 05:13:00,27.1,26.6,29.49,WNW,296,10.0,12.0,98,0.00,,---,0.00,VWS V14.01,2013-03-11 10:13:00,
2013-03-11 05:18:00,27.1,26.6,29.49,WNW,298,5.0,15.0,98,0.00,,---,0.00,VWS V14.01,2013-03-11 10:18:00,
2013-03-11 05:23:00,27.1,26.6,29.49,NW,304,6.0,15.0,98,0.00,,---,0.00,VWS V14.01,2013-03-11 10:23:00,
2013-03-11 05:28:00,27.1,26.6,29.49,WNW,302,11.0,15.0,98,0.00,,---,0.00,VWS V14.01,2013-03-11 10:28:00,
2013-03-11 05:33:00,27.1,26.6,29.49,WNW,296,2.0,14.0,98,0.00,,---,0.00,VWS V14.01,2013-03-11 10:33:00,
2013-03-11 05:38:00,27.1,26.6,29.49,WNW,296,6.0,14.0,98,0.00,,---,0.00,VWS V14.01,2013-03-11 10:38:00,
2013-03-11 05:43:00,27.1,26.6,29.49,NW,318,14.0,14.0,98,0.00,,---,0.00,VWS V14.01,2013-03-11 10:43:00,
2013-03-11 05:48:00,27.0,26.5,29.49,NW,304,6.0,14.0,98,0.00,,---,0.00,VWS V14.01,2013-03-11 10:48:00,
2013-03-11 05:53:00,27.1,26.6,29.49,WNW,286,9.0,14.0,98,0.00,,---,0.00,VWS V14.01,2013-03-11 10:53:00,
2013-03-11 05:58:00,27.1,26.6,29.50,NW,309,5.0,16.0,98,0.00,,---,0.00,VWS V14.01,2013-03-11 10:58:00,
2013-03-11 06:03:00,27.1,26.6,29.50,WNW,290,11.0,11.0,98,0.00,,---,0.00,VWS V14.01,2013-03-11 11:03:00,
2013-03-11 06:08:00,27.0,26.5,29.50,WNW,288,5.0,13.0,98,0.00,,---,0.00,VWS V14.01,2013-03-11 11:08:00,
2013-03-11 06:13:00,27.0,26.5,29.50,NW,310,6.0,13.0,98,0.00,,---,0.00,VWS V14.01,2013-03-11 11:13:00,
2013-03-11 06:18:00,27.0,26.5,29.50,WNW,295,6.0,14.0,98,0.00,,---,0.00,VWS V14.01,2013-03-11 11:18:00,
2013-03-11 06:23:00,27.0,26.5,29.50,WNW,303,3.0,14.0,98,0.00,,---,0.00,VWS V14.01,2013-03-11 11:23:00,
2013-03-11 06:28:00,27.0,26.5,29.50,WNW,303,5.0,14.0,98,0.00,,---,0.00,VWS V14.01,2013-03-11 11:28:00,
2013-03-11 06:33:00,27.0,26.5,29.50,WNW,300,8.0,11.0,98,0.00,,---,0.00,VWS V14.01,2013-03-11 11:33:00,
2013-03-11 06:38:00,27.0,26.5,29.50,WNW,284,5.0,12.0,98,0.00,,---,0.00,VWS V14.01,2013-03-11 11:38:00,
2013-03-11 06:43:00,27.0,26.5,29.50,WNW,294,3.0,12.0,98,0.00,,---,0.00,VWS V14.01,2013-03-11 11:43:00,
2013-03-11 06:48:00,27.0,26.5,29.50,WNW,298,6.0,14.0,98,0.00,,---,0.00,VWS V14.01,2013-03-11 11:48:00,
2013-03-11 06:53:00,26.9,26.4,29.50,NW,323,4.0,14.0,98,0.00,,---,0.00,VWS V14.01,2013-03-11 11:53:00,
2013-03-11 06:58:00,27.0,26.5,29.51,NW,315,8.0,14.0,98,0.00,,---,0.00,VWS V14.01,2013-03-11 11:58:00,
2013-03-11 07:03:00,27.0,26.5,29.50,WNW,301,4.0,12.0,98,0.00,,---,0.00,VWS V14.01,2013-03-11 12:03:00,
2013-03-11 07:08:00,27.0,26.5,29.51,NW,308,9.0,12.0,98,0.00,,---,0.00,VWS V14.01,2013-03-11 12:08:00,
2013-03-11 07:13:00,26.9,26.4,29.51,WNW,295,4.0,12.0,98,0.00,,---,0.00,VWS V14.01,2013-03-11 12:13:00,
2013-03-11 07:18:00,27.0,26.5,29.50,WNW,296,4.0,12.0,98,0.00,,---,0.00,VWS V14.01,2013-03-11 12:18:00,
2013-03-11 07:23:00,27.0,26.5,29.51,WNW,289,7.0,14.0,98,0.00,,---,0.00,VWS V14.01,2013-03-11 12:23:00,
2013-03-11 07:28:00,27.0,26.5,29.51,WNW,298,4.0,14.0,98,0.00,,---,0.00,VWS V14.01,2013-03-11 12:28:00,
2013-03-11 07:33:00,27.0,26.5,29.51,NW,304,10.0,11.0,98,0.00,,---,0.00,VWS V14.01,2013-03-11 12:33:00,
2013-03-11 07:38:00,27.0,26.5,29.51,WNW,302,6.0,12.0,98,0.00,,---,0.00,VWS V14.01,2013-03-11 12:38:00,
2013-03-11 07:43:00,27.0,26.5,29.51,NW,326,6.0,13.0,98,0.00,,---,0.00,VWS V14.01,2013-03-11 12:43:00,
2013-03-11 07:48:00,27.0,26.5,29.51,WNW,294,6.0,14.0,98,0.00,,---,0.00,VWS V14.01,2013-03-11 12:48:00,
2013-03-11 07:54:00,27.1,26.6,29.51,NW,305,10.0,14.0,98,0.00,,---,0.00,VWS V14.01,2013-03-11 12:54:00,
2013-03-11 07:59:00,27.1,26.6,29.51,NW,307,4.0,14.0,98,0.00,,---,0.00,VWS V14.01,2013-03-11 12:59:00,
2013-03-11 08:04:00,27.1,26.6,29.51,NNW,327,8.0,12.0,98,0.00,,---,0.00,VWS V14.01,2013-03-11 13:04:00,
2013-03-11 08:09:00,27.1,26.6,29.51,NW,311,10.0,13.0,98,0.00,,---,0.00,VWS V14.01,2013-03-11 13:09:00,
2013-03-11 08:14:00,27.1,26.6,29.51,NW,317,7.0,13.0,98,0.00,,---,0.00,VWS V14.01,2013-03-11 13:14:00,
2013-03-11 08:19:00,27.1,26.6,29.51,NW,315,6.0,13.0,98,0.00,,---,0.00,VWS V14.01,2013-03-11 13:19:00,
2013-03-11 08:24:00,27.1,26.6,29.51,NW,304,5.0,14.0,98,0.00,,---,0.00,VWS V14.01,2013-03-11 13:24:00,
2013-03-11 08:29:00,27.1,26.6,29.51,NW,317,7.0,14.0,98,0.00,,---,0.00,VWS V14.01,2013-03-11 13:29:00,
2013-03-11 08:34:00,27.1,26.6,29.51,NW,305,5.0,14.0,98,0.00,,---,0.00,VWS V14.01,2013-03-11 13:34:00,
2013-03-11 08:39:00,27.2,26.7,29.51,NW,312,10.0,14.0,98,0.00,,---,0.00,VWS V14.01,2013-03-11 13:39:00,
2013-03-11 08:44:00,27.1,26.6,29.51,NW,321,8.0,14.0,98,0.00,,---,0.00,VWS V14.01,2013-03-11 13:44:00,
2013-03-11 08:49:00,27.1,26.6,29.51,NNW,329,6.0,14.0,98,0.00,,---,0.00,VWS V14.01,2013-03-11 13:49:00,
2013-03-11 08:54:00,27.2,26.7,29.51,NW,307,3.0,14.0,98,0.00,,---,0.00,VWS V14.01,2013-03-11 13:54:00,
2013-03-11 08:59:00,27.2,26.7,29.51,WNW,295,5.0,14.0,98,0.00,,---,0.00,VWS V14.01,2013-03-11 13:59:00,
2013-03-11 09:04:00,27.2,26.7,29.51,NW,306,4.0,12.0,98,0.00,,---,0.00,VWS V14.01,2013-03-11 14:04:00,
2013-03-11 09:09:00,27.3,26.8,29.51,WNW,296,7.0,12.0,98,0.00,,---,0.00,VWS V14.01,2013-03-11 14:09:00,
2013-03-11 09:14:00,27.3,26.8,29.51,North,5,6.0,12.0,98,0.00,,---,0.00,VWS V14.01,2013-03-11 14:14:00,
2013-03-11 09:19:00,27.4,26.9,29.51,NW,305,5.0,12.0,98,0.00,,---,0.00,VWS V14.01,2013-03-11 14:19:00,
2013-03-11 09:24:00,27.4,26.9,29.51,NW,311,4.0,12.0,98,0.00,,---,0.00,VWS V14.01,2013-03-11 14:24:00,
2013-03-11 09:29:00,27.5,27.0,29.50,NW,307,4.0,12.0,98,0.00,,---,0.00,VWS V14.01,2013-03-11 14:29:00,
2013-03-11 09:34:00,27.5,27.0,29.50,NW,316,5.0,10.0,98,0.00,,---,0.00,VWS V14.01,2013-03-11 14:34:00,
2013-03-11 09:39:00,27.6,27.1,29.50,NNW,347,6.0,12.0,98,0.00,,---,0.00,VWS V14.01,2013-03-11 14:39:00,
2013-03-11 09:44:00,27.5,27.0,29.50,NNW,348,7.0,12.0,98,0.00,,---,0.00,VWS V14.01,2013-03-11 14:44:00,
2013-03-11 09:49:00,27.5,27.0,29.50,NW,316,3.0,12.0,98,0.00,,---,0.00,VWS V14.01,2013-03-11 14:49:00,
2013-03-11 09:54:00,27.5,27.0,29.50,NW,325,5.0,12.0,98,0.00,,---,0.00,VWS V14.01,2013-03-11 14:54:00,
2013-03-11 09:59:00,27.6,27.1,29.50,NW,313,2.0,12.0,98,0.00,,---,0.00,VWS V14.01,2013-03-11 14:59:00,
2013-03-11 10:04:00,27.5,27.0,29.49,NW,309,9.0,14.0,98,0.00,,---,0.00,VWS V14.01,2013-03-11 15:04:00,
2013-03-11 10:09:00,27.5,27.0,29.49,NW,319,6.0,14.0,98,0.00,,---,0.00,VWS V14.01,2013-03-11 15:09:00,
2013-03-11 10:14:00,27.4,26.9,29.49,NNW,334,11.0,14.0,98,0.00,,---,0.00,VWS V14.01,2013-03-11 15:14:00,
2013-03-11 10:19:00,27.5,27.0,29.49,NW,323,6.0,15.0,98,0.00,,---,0.00,VWS V14.01,2013-03-11 15:19:00,
2013-03-11 10:24:00,27.5,27.0,29.49,NW,326,4.0,17.0,98,0.00,,---,0.00,VWS V14.01,2013-03-11 15:24:00,
2013-03-11 10:29:00,27.5,27.0,29.49,NW,306,7.0,17.0,98,0.00,,---,0.00,VWS V14.01,2013-03-11 15:29:00,
2013-03-11 10:34:00,27.5,27.0,29.48,NNW,334,11.0,13.0,98,0.00,,---,0.00,VWS V14.01,2013-03-11 15:34:00,
2013-03-11 10:39:00,27.5,27.0,29.48,NW,309,6.0,13.0,98,0.00,,---,0.00,VWS V14.01,2013-03-11 15:39:00,
2013-03-11 10:44:00,27.5,27.0,29.48,WNW,300,10.0,17.0,98,0.00,,---,0.00,VWS V14.01,2013-03-11 15:44:00,
2013-03-11 10:49:00,27.5,27.0,29.48,NW,312,6.0,17.0,98,0.00,,---,0.00,VWS V14.01,2013-03-11 15:49:00,
2013-03-11 10:55:00,27.5,27.0,29.48,NW,323,13.0,17.0,98,0.00,,---,0.00,VWS V14.01,2013-03-11 15:55:00,
2013-03-11 11:00:00,27.5,27.0,29.48,WNW,298,10.0,17.0,98,0.00,,---,0.00,VWS V14.01,2013-03-11 16:00:00,
2013-03-11 11:05:00,27.5,27.0,29.48,NW,309,10.0,15.0,98,0.00,,---,0.00,VWS V14.01,2013-03-11 16:05:00,
2013-03-11 11:10:00,27.5,27.0,29.48,WNW,298,11.0,15.0,98,0.00,,---,0.00,VWS V14.01,2013-03-11 16:10:00,
2013-03-11 11:15:00,27.6,27.1,29.48,WNW,297,9.0,15.0,98,0.00,,---,0.00,VWS V14.01,2013-03-11 16:15:00,
2013-03-11 11:20:00,27.6,27.1,29.48,WNW,302,7.0,15.0,98,0.00,,---,0.00,VWS V14.01,2013-03-11 16:20:00,
2013-03-11 11:25:00,27.6,27.1,29.47,NW,304,6.0,15.0,98,0.00,,---,0.00,VWS V14.01,2013-03-11 16:25:00,
2013-03-11 11:31:00,27.6,27.1,29.47,WNW,302,3.0,15.0,98,0.00,,---,0.00,VWS V14.01,2013-03-11 16:31:00,
2013-03-11 11:36:00,27.6,27.1,29.47,NW,304,6.0,16.0,98,0.00,,---,0.00,VWS V14.01,2013-03-11 16:36:00,
2013-03-11 11:41:00,27.5,27.0,29.47,NW,307,5.0,16.0,98,0.00,,---,0.00,VWS V14.01,2013-03-11 16:41:00,
2013-03-11 11:47:00,27.6,27.1,29.47,WNW,302,7.0,16.0,98,0.00,,---,0.00,VWS V14.01,2013-03-11 16:47:00,
2013-03-11 11:52:00,27.6,27.1,29.47,WNW,297,8.0,16.0,98,0.00,,---,0.00,VWS V14.01,2013-03-11 16:52:00,
2013-03-11 11:57:00,27.7,27.2,29.47,NW,310,3.0,16.0,98,0.00,,---,0.00,VWS V14.01,2013-03-11 16:57:00,
2013-03-11 12:02:00,27.8,27.3,29.47,WNW,294,11.0,11.0,98,0.00,,---,0.00,VWS V14.01,2013-03-11 17:02:00,
2013-03-11 12:07:00,27.8,27.3,29.47,WNW,289,10.0,15.0,98,0.00,,---,0.00,VWS V14.01,2013-03-11 17:07:00,
2013-03-11 12:12:00,27.8,27.3,29.47,NW,308,6.0,15.0,98,0.00,,---,0.00,VWS V14.01,2013-03-11 17:12:00,
2013-03-11 12:17:00,27.9,27.4,29.47,NW,305,5.0,15.0,98,0.00,,---,0.00,VWS V14.01,2013-03-11 17:17:00,
2013-03-11 12:22:00,28.0,27.5,29.47,WNW,294,6.0,15.0,98,0.00,,---,0.00,VWS V14.01,2013-03-11 17:22:00,
2013-03-11 12:27:00,28.0,27.5,29.47,NW,317,4.0,15.0,98,0.00,,---,0.00,VWS V14.01,2013-03-11 17:27:00,
2013-03-11 12:32:00,28.0,27.5,29.47,WNW,298,11.0,14.0,98,0.00,,---,0.00,VWS V14.01,2013-03-11 17:32:00,
2013-03-11 12:37:00,28.0,27.5,29.47,NNW,327,7.0,14.0,98,0.00,,---,0.00,VWS V14.01,2013-03-11 17:37:00,
2013-03-11 12:43:00,28.1,27.6,29.47,NW,305,10.0,14.0,98,0.00,,---,0.00,VWS V14.01,2013-03-11 17:43:00,
2013-03-11 12:48:00,28.1,27.6,29.47,WNW,294,5.0,14.0,98,0.00,,---,0.00,VWS V14.01,2013-03-11 17:48:00,
2013-03-11 12:53:00,28.1,27.6,29.47,WNW,296,5.0,14.0,98,0.00,,---,0.00,VWS V14.01,2013-03-11 17:53:00,
2013-03-11 12:58:00,28.1,27.6,29.47,NW,315,9.0,14.0,98,0.00,,---,0.00,VWS V14.01,2013-03-11 17:58:00,
2013-03-11 13:03:00,28.2,27.7,29.47,WNW,301,5.0,11.0,98,0.00,,---,0.00,VWS V14.01,2013-03-11 18:03:00,
2013-03-11 13:08:00,28.2,27.7,29.47,WNW,296,5.0,11.0,98,0.00,,---,0.00,VWS V14.01,2013-03-11 18:08:00,
2013-03-11 13:13:00,28.3,27.8,29.47,WNW,290,10.0,11.0,98,0.00,,---,0.00,VWS V14.01,2013-03-11 18:13:00,
2013-03-11 13:18:00,28.2,27.7,29.47,NW,305,9.0,12.0,98,0.00,,---,0.00,VWS V14.01,2013-03-11 18:18:00,
2013-03-11 13:23:00,28.1,27.6,29.47,WNW,289,5.0,12.0,98,0.00,,---,0.00,VWS V14.01,2013-03-11 18:23:00,
2013-03-11 13:28:00,28.2,27.7,29.47,NW,321,3.0,12.0,98,0.00,,---,0.00,VWS V14.01,2013-03-11 18:28:00,
2013-03-11 13:33:00,28.1,27.6,29.47,WNW,291,8.0,12.0,98,0.00,,---,0.00,VWS V14.01,2013-03-11 18:33:00,
2013-03-11 13:38:00,28.0,27.5,29.47,WNW,299,11.0,12.0,98,0.00,,---,0.00,VWS V14.01,2013-03-11 18:38:00,
2013-03-11 13:43:00,28.0,27.5,29.47,WNW,302,5.0,12.0,98,0.00,,---,0.00,VWS V14.01,2013-03-11 18:43:00,
2013-03-11 13:48:00,28.0,27.5,29.47,WNW,292,6.0,12.0,98,0.00,,---,0.00,VWS V14.01,2013-03-11 18:48:00,
2013-03-11 13:53:00,28.2,27.7,29.47,WNW,303,2.0,12.0,98,0.00,,---,0.00,VWS V14.01,2013-03-11 18:53:00,
2013-03-11 13:58:00,28.3,27.8,29.47,NW,306,10.0,12.0,98,0.00,,---,0.00,VWS V14.01,2013-03-11 18:58:00,
2013-03-11 14:03:00,28.1,27.4,29.47,West,280,3.0,13.0,97,0.00,,---,0.00,VWS V14.01,2013-03-11 19:03:00,
2013-03-11 14:08:00,28.1,27.4,29.47,NW,315,6.0,13.0,97,0.00,,---,0.00,VWS V14.01,2013-03-11 19:08:00,
2013-03-11 14:13:00,28.1,27.6,29.47,NW,315,5.0,13.0,98,0.00,,---,0.00,VWS V14.01,2013-03-11 19:13:00,
2013-03-11 14:18:00,28.1,27.4,29.47,NW,304,4.0,13.0,97,0.00,,---,0.00,VWS V14.01,2013-03-11 19:18:00,
2013-03-11 14:23:00,28.2,27.7,29.47,WNW,291,7.0,13.0,98,0.00,,---,0.00,VWS V14.01,2013-03-11 19:23:00,
2013-03-11 14:28:00,28.2,27.7,29.47,WNW,294,6.0,13.0,98,0.00,,---,0.00,VWS V14.01,2013-03-11 19:28:00,
2013-03-11 14:33:00,28.1,27.4,29.47,NNW,336,3.0,10.0,97,0.00,,---,0.00,VWS V14.01,2013-03-11 19:33:00,
2013-03-11 14:38:00,28.1,27.4,29.46,West,272,3.0,11.0,97,0.00,,---,0.00,VWS V14.01,2013-03-11 19:38:00,
2013-03-11 14:44:00,28.2,27.5,29.47,WNW,286,4.0,11.0,97,0.00,,---,0.00,VWS V14.01,2013-03-11 19:44:00,
2013-03-11 14:49:00,28.3,27.8,29.46,WNW,292,3.0,11.0,98,0.00,,---,0.00,VWS V14.01,2013-03-11 19:49:00,
2013-03-11 14:54:00,28.4,27.7,29.46,WNW,292,2.0,11.0,97,0.00,,---,0.00,VWS V14.01,2013-03-11 19:54:00,
2013-03-11 14:59:00,28.6,28.1,29.46,WNW,296,3.0,11.0,98,0.00,,---,0.00,VWS V14.01,2013-03-11 19:59:00,
2013-03-11 15:04:00,28.6,27.9,29.46,West,277,7.0,12.0,97,0.00,,---,0.00,VWS V14.01,2013-03-11 20:04:00,
2013-03-11 15:09:00,28.4,27.7,29.46,NW,313,4.0,12.0,97,0.00,,---,0.00,VWS V14.01,2013-03-11 20:09:00,
2013-03-11 15:14:00,28.5,27.8,29.46,WNW,290,2.0,12.0,97,0.00,,---,0.00,VWS V14.01,2013-03-11 20:14:00,
2013-03-11 15:19:00,28.7,28.2,29.46,WNW,296,3.0,12.0,98,0.00,,---,0.00,VWS V14.01,2013-03-11 20:19:00,
2013-03-11 15:24:00,28.8,28.3,29.47,WNW,297,3.0,12.0,98,0.00,,---,0.00,VWS V14.01,2013-03-11 20:24:00,
2013-03-11 15:29:00,28.7,28.2,29.47,NW,306,5.0,12.0,98,0.00,,---,0.00,VWS V14.01,2013-03-11 20:29:00,
2013-03-11 15:34:00,28.5,28.0,29.47,NW,304,5.0,10.0,98,0.00,,---,0.00,VWS V14.01,2013-03-11 20:34:00,
2013-03-11 15:39:00,28.4,27.9,29.47,NW,305,4.0,11.0,98,0.00,,---,0.00,VWS V14.01,2013-03-11 20:39:00,
2013-03-11 15:44:00,28.5,28.0,29.48,WNW,298,7.0,11.0,98,0.00,,---,0.00,VWS V14.01,2013-03-11 20:44:00,
2013-03-11 15:49:00,28.5,28.0,29.47,NW,310,6.0,11.0,98,0.00,,---,0.00,VWS V14.01,2013-03-11 20:49:00,
2013-03-11 15:54:00,28.4,27.9,29.48,WNW,295,5.0,14.0,98,0.00,,---,0.00,VWS V14.01,2013-03-11 20:54:00,
2013-03-11 15:59:00,28.1,27.4,29.48,West,278,5.0,14.0,97,0.00,,---,0.00,VWS V14.01,2013-03-11 20:59:00,
2013-03-11 16:04:00,28.0,27.3,29.48,West,280,4.0,13.0,97,0.00,,---,0.00,VWS V14.01,2013-03-11 21:04:00,
2013-03-11 16:09:00,28.0,27.5,29.48,WNW,285,5.0,13.0,98,0.00,,---,0.00,VWS V14.01,2013-03-11 21:09:00,
2013-03-11 16:14:00,27.8,27.3,29.48,WNW,295,10.0,14.0,98,0.00,,---,0.00,VWS V14.01,2013-03-11 21:14:00,
2013-03-11 16:19:00,27.8,27.3,29.48,WNW,302,3.0,14.0,98,0.00,,---,0.00,VWS V14.01,2013-03-11 21:19:00,
2013-03-11 16:24:00,27.8,27.3,29.49,NW,323,7.0,14.0,98,0.00,,---,0.00,VWS V14.01,2013-03-11 21:24:00,
2013-03-11 16:29:00,27.7,27.2,29.48,NW,313,3.0,14.0,98,0.00,,---,0.00,VWS V14.01,2013-03-11 21:29:00,
2013-03-11 16:34:00,27.8,27.3,29.49,NW,309,9.0,11.0,98,0.00,,---,0.00,VWS V14.01,2013-03-11 21:34:00,
2013-03-11 16:40:00,27.7,27.2,29.49,WNW,301,5.0,11.0,98,0.00,,---,0.00,VWS V14.01,2013-03-11 21:40:00,
2013-03-11 16:45:00,27.6,27.1,29.49,NW,304,6.0,11.0,98,0.00,,---,0.00,VWS V14.01,2013-03-11 21:45:00,
2013-03-11 16:50:00,27.5,27.0,29.49,NW,306,6.0,11.0,98,0.00,,---,0.00,VWS V14.01,2013-03-11 21:50:00,
2013-03-11 16:55:00,27.5,27.0,29.49,WNW,295,7.0,11.0,98,0.00,,---,0.00,VWS V14.01,2013-03-11 21:55:00,
2013-03-11 17:00:00,27.5,27.0,29.49,WNW,284,5.0,7.0,98,0.00,,---,0.00,VWS V14.01,2013-03-11 22:00:00,
2013-03-11 17:05:00,27.6,27.1,29.49,WNW,294,10.0,11.0,98,0.00,,---,0.00,VWS V14.01,2013-03-11 22:05:00,
2013-03-11 17:10:00,27.7,27.2,29.49,NW,308,9.0,13.0,98,0.00,,---,0.00,VWS V14.01,2013-03-11 22:10:00,
2013-03-11 17:15:00,27.8,27.1,29.49,NW,310,7.0,13.0,97,0.00,,---,0.00,VWS V14.01,2013-03-11 22:15:00,
2013-03-11 17:20:00,27.8,27.1,29.49,West,281,8.0,14.0,97,0.00,,---,0.00,VWS V14.01,2013-03-11 22:20:00,
2013-03-11 17:25:00,27.6,26.9,29.49,WNW,298,10.0,16.0,97,0.00,,---,0.00,VWS V14.01,2013-03-11 22:25:00,
2013-03-11 17:30:00,27.6,26.6,29.49,WNW,302,4.0,6.0,96,0.00,,---,0.00,VWS V14.01,2013-03-11 22:30:00,
2013-03-11 17:35:00,27.6,26.6,29.49,West,280,6.0,11.0,96,0.00,,---,0.00,VWS V14.01,2013-03-11 22:35:00,
2013-03-11 17:40:00,27.3,26.3,29.50,NW,309,7.0,13.0,96,0.00,,---,0.00,VWS V14.01,2013-03-11 22:40:00,
2013-03-11 17:45:00,27.2,26.2,29.50,West,281,7.0,17.0,96,0.00,,---,0.00,VWS V14.01,2013-03-11 22:45:00,
2013-03-11 17:50:00,27.0,26.0,29.50,WNW,293,11.0,17.0,96,0.00,,---,0.00,VWS V14.01,2013-03-11 22:50:00,
2013-03-11 17:55:00,26.7,25.5,29.50,WNW,288,9.0,17.0,95,0.00,,---,0.00,VWS V14.01,2013-03-11 22:55:00,
2013-03-11 18:02:00,26.7,25.7,29.50,West,271,7.0,7.0,96,0.00,,---,0.00,VWS V14.01,2013-03-11 23:02:00,
2013-03-11 18:07:00,26.7,25.7,29.50,NW,307,5.0,10.0,96,0.00,,---,0.00,VWS V14.01,2013-03-11 23:07:00,
2013-03-11 18:12:00,26.6,25.6,29.50,WNW,290,10.0,11.0,96,0.00,,---,0.00,VWS V14.01,2013-03-11 23:12:00,
2013-03-11 18:17:00,26.3,25.1,29.51,West,274,6.0,15.0,95,0.00,,---,0.00,VWS V14.01,2013-03-11 23:17:00,
2013-03-11 18:23:00,26.2,25.2,29.51,WNW,292,4.0,15.0,96,0.00,,---,0.00,VWS V14.01,2013-03-11 23:23:00,
2013-03-11 18:28:00,26.1,25.1,29.51,West,271,5.0,15.0,96,0.00,,---,0.00,VWS V14.01,2013-03-11 23:28:00,
2013-03-11 18:33:00,26.0,25.0,29.52,WNW,289,7.0,7.0,96,0.00,,---,0.00,VWS V14.01,2013-03-11 23:33:00,
2013-03-11 18:38:00,25.8,24.8,29.52,WNW,300,4.0,10.0,96,0.00,,---,0.00,VWS V14.01,2013-03-11 23:38:00,
2013-03-11 18:43:00,25.7,24.7,29.52,West,269,3.0,10.0,96,0.00,,---,0.00,VWS V14.01,2013-03-11 23:43:00,
2013-03-11 18:48:00,25.6,24.6,29.53,WNW,302,4.0,10.0,96,0.00,,---,0.00,VWS V14.01,2013-03-11 23:48:00,
2013-03-11 18:53:00,25.6,24.6,29.53,NW,309,10.0,11.0,96,0.00,,---,0.00,VWS V14.01,2013-03-11 23:53:00,
2013-03-11 18:58:00,25.3,24.3,29.53,NW,304,4.0,12.0,96,0.00,,---,0.00,VWS V14.01,2013-03-11 23:58:00,
2013-03-11 19:03:00,25.1,24.1,29.53,WSW,256,4.0,14.0,96,0.00,,---,0.00,VWS V14.01,2013-03-12 00:03:00,
2013-03-11 19:08:00,24.9,23.7,29.53,NW,319,3.0,16.0,95,0.00,,---,0.00,VWS V14.01,2013-03-12 00:08:00,
2013-03-11 19:13:00,24.8,23.8,29.54,West,279,9.0,16.0,96,0.00,,---,0.00,VWS V14.01,2013-03-12 00:13:00,
2013-03-11 19:18:00,24.7,23.5,29.54,WNW,285,5.0,16.0,95,0.00,,---,0.00,VWS V14.01,2013-03-12 00:18:00,
2013-03-11 19:23:00,24.7,23.7,29.54,WNW,302,5.0,16.0,96,0.00,,---,0.00,VWS V14.01,2013-03-12 00:23:00,
2013-03-11 19:28:00,24.7,23.5,29.54,WNW,290,3.0,16.0,95,0.00,,---,0.00,VWS V14.01,2013-03-12 00:28:00,
2013-03-11 19:33:00,24.6,23.4,29.54,WNW,293,6.0,10.0,95,0.00,,---,0.00,VWS V14.01,2013-03-12 00:33:00,
2013-03-11 19:38:00,24.6,23.4,29.55,WNW,282,5.0,10.0,95,0.00,,---,0.00,VWS V14.01,2013-03-12 00:38:00,
2013-03-11 19:43:00,24.6,23.4,29.56,West,280,4.0,14.0,95,0.00,,---,0.00,VWS V14.01,2013-03-12 00:43:00,
2013-03-11 19:48:00,24.6,23.4,29.56,WNW,282,3.0,14.0,95,0.00,,---,0.00,VWS V14.01,2013-03-12 00:48:00,
2013-03-11 19:53:00,24.6,23.4,29.56,WNW,299,4.0,14.0,95,0.00,,---,0.00,VWS V14.01,2013-03-12 00:53:00,
2013-03-11 19:58:00,24.5,23.3,29.56,WNW,292,4.0,14.0,95,0.00,,---,0.00,VWS V14.01,2013-03-12 00:58:00,
2013-03-11 20:04:00,24.5,23.3,29.56,NW,313,5.0,12.0,95,0.00,,---,0.00,VWS V14.01,2013-03-12 01:04:00,
2013-03-11 20:09:00,24.4,23.2,29.56,NW,313,6.0,12.0,95,0.00,,---,0.00,VWS V14.01,2013-03-12 01:09:00,
2013-03-11 20:14:00,24.3,23.1,29.57,WNW,291,6.0,12.0,95,0.00,,---,0.00,VWS V14.01,2013-03-12 01:14:00,
2013-03-11 20:19:00,24.3,23.1,29.57,NW,307,7.0,12.0,95,0.00,,---,0.00,VWS V14.01,2013-03-12 01:19:00,
2013-03-11 20:24:00,24.3,23.1,29.58,NW,304,8.0,12.0,95,0.00,,---,0.00,VWS V14.01,2013-03-12 01:24:00,
2013-03-11 20:29:00,24.2,23.0,29.58,WNW,298,3.0,12.0,95,0.00,,---,0.00,VWS V14.01,2013-03-12 01:29:00,
2013-03-11 20:34:00,24.2,23.0,29.58,WNW,291,3.0,9.0,95,0.00,,---,0.00,VWS V14.01,2013-03-12 01:34:00,
2013-03-11 20:39:00,24.1,22.9,29.58,West,281,4.0,9.0,95,0.00,,---,0.00,VWS V14.01,2013-03-12 01:39:00,
2013-03-11 20:44:00,24.1,22.9,29.58,WNW,294,4.0,9.0,95,0.00,,---,0.00,VWS V14.01,2013-03-12 01:44:00,
2013-03-11 20:49:00,24.1,22.9,29.58,WNW,293,3.0,9.0,95,0.00,,---,0.00,VWS V14.01,2013-03-12 01:49:00,
2013-03-11 20:54:00,24.1,22.9,29.58,WNW,299,4.0,9.0,95,0.00,,---,0.00,VWS V14.01,2013-03-12 01:54:00,
2013-03-11 20:59:00,24.0,22.8,29.58,West,271,2.0,9.0,95,0.00,,---,0.00,VWS V14.01,2013-03-12 01:59:00,
2013-03-11 21:04:00,24.1,22.9,29.58,NW,308,1.0,5.0,95,0.00,,---,0.00,VWS V14.01,2013-03-12 02:04:00,
2013-03-11 21:09:00,24.0,22.8,29.59,West,278,3.0,5.0,95,0.00,,---,0.00,VWS V14.01,2013-03-12 02:09:00,
2013-03-11 21:14:00,24.0,22.8,29.59,WNW,292,3.0,5.0,95,0.00,,---,0.00,VWS V14.01,2013-03-12 02:14:00,
2013-03-11 21:19:00,24.1,22.9,29.59,West,281,2.0,5.0,95,0.00,,---,0.00,VWS V14.01,2013-03-12 02:19:00,
2013-03-11 21:24:00,24.0,22.8,29.59,West,277,0.0,5.0,95,0.00,,---,0.00,VWS V14.01,2013-03-12 02:24:00,
2013-03-11 21:29:00,24.0,22.8,29.60,WNW,292,0.0,5.0,95,0.00,,---,0.00,VWS V14.01,2013-03-12 02:29:00,
2013-03-11 21:35:00,24.0,22.8,29.60,West,271,2.0,3.0,95,0.00,,---,0.00,VWS V14.01,2013-03-12 02:35:00,
2013-03-11 21:40:00,24.0,22.8,29.60,West,281,0.0,3.0,95,0.00,,---,0.00,VWS V14.01,2013-03-12 02:40:00,
2013-03-11 21:45:00,24.0,22.8,29.60,WNW,292,0.0,4.0,95,0.00,,---,0.00,VWS V14.01,2013-03-12 02:45:00,
2013-03-11 21:50:00,24.0,22.8,29.60,WNW,293,2.0,4.0,95,0.00,,---,0.00,VWS V14.01,2013-03-12 02:50:00,
2013-03-11 21:55:00,24.0,22.8,29.60,West,276,0.0,4.0,95,0.00,,---,0.00,VWS V14.01,2013-03-12 02:55:00,
2013-03-11 22:00:00,23.9,22.7,29.60,WNW,286,2.0,3.0,95,0.00,,---,0.00,VWS V14.01,2013-03-12 03:00:00,
2013-03-11 22:06:00,23.9,22.7,29.61,WNW,286,0.0,3.0,95,0.00,,---,0.00,VWS V14.01,2013-03-12 03:06:00,
2013-03-11 22:11:00,23.9,22.7,29.61,West,273,0.0,3.0,95,0.00,,---,0.00,VWS V14.01,2013-03-12 03:11:00,
2013-03-11 22:16:00,23.9,22.7,29.61,West,273,0.0,3.0,95,0.00,,---,0.00,VWS V14.01,2013-03-12 03:16:00,
2013-03-11 22:21:00,23.9,22.7,29.61,West,273,0.0,3.0,95,0.00,,---,0.00,VWS V14.01,2013-03-12 03:21:00,
2013-03-11 22:26:00,23.9,22.7,29.61,West,273,0.0,3.0,95,0.00,,---,0.00,VWS V14.01,2013-03-12 03:26:00,
2013-03-11 22:31:00,23.9,22.7,29.61,West,273,0.0,0.0,95,0.00,,---,0.00,VWS V14.01,2013-03-12 03:31:00,
2013-03-11 22:36:00,23.9,22.7,29.61,West,267,0.0,4.0,95,0.00,,---,0.00,VWS V14.01,2013-03-12 03:36:00,
2013-03-11 22:41:00,23.9,22.7,29.61,West,267,0.0,4.0,95,0.00,,---,0.00,VWS V14.01,2013-03-12 03:41:00,
2013-03-11 22:46:00,23.9,22.7,29.61,West,269,0.0,4.0,95,0.00,,---,0.00,VWS V14.01,2013-03-12 03:46:00,
2013-03-11 22:51:00,23.9,22.7,29.61,SW,226,0.0,4.0,95,0.00,,---,0.00,VWS V14.01,2013-03-12 03:51:00,
2013-03-11 22:56:00,23.9,22.7,29.61,SW,226,0.0,4.0,95,0.00,,---,0.00,VWS V14.01,2013-03-12 03:56:00,
2013-03-11 23:00:00,23.8,22.8,29.61,WSW,238,0.0,4.0,96,0.00,,---,0.00,VWS V14.01,2013-03-12 04:00:00,
2013-03-11 23:05:00,23.8,22.8,29.61,WSW,238,0.0,2.0,96,0.00,,---,0.00,VWS V14.01,2013-03-12 04:05:00,
2013-03-11 23:10:00,23.8,22.8,29.61,WSW,238,0.0,2.0,96,0.00,,---,0.00,VWS V14.01,2013-03-12 04:10:00,
2013-03-11 23:15:00,23.8,22.8,29.61,SW,226,0.0,3.0,96,0.00,,---,0.00,VWS V14.01,2013-03-12 04:15:00,
2013-03-11 23:20:00,23.7,22.7,29.61,SW,228,0.0,3.0,96,0.00,,---,0.00,VWS V14.01,2013-03-12 04:20:00,
2013-03-11 23:25:00,23.7,22.7,29.61,SW,228,0.0,3.0,96,0.00,,---,0.00,VWS V14.01,2013-03-12 04:25:00,
2013-03-11 23:30:00,23.7,22.7,29.61,SSW,199,2.0,2.0,96,0.00,,---,0.00,VWS V14.01,2013-03-12 04:30:00,
2013-03-11 23:35:00,23.7,22.7,29.61,West,263,3.0,3.0,96,0.00,,---,0.00,VWS V14.01,2013-03-12 04:35:00,
2013-03-11 23:40:00,23.8,22.8,29.61,WSW,247,1.0,7.0,96,0.00,,---,0.00,VWS V14.01,2013-03-12 04:40:00,
2013-03-11 23:45:00,23.8,22.8,29.61,WSW,244,3.0,7.0,96,0.00,,---,0.00,VWS V14.01,2013-03-12 04:45:00,
2013-03-11 23:50:00,23.8,22.8,29.61,WSW,255,1.0,7.0,96,0.00,,---,0.00,VWS V14.01,2013-03-12 04:50:00,
2013-03-11 23:55:00,23.8,22.8,29.61,WSW,242,4.0,7.0,96,0.00,,---,0.00,VWS V14.01,2013-03-12 04:55:00,